• Join FlightAware (Why Join?)
  • Login
  • US Flag 
05:16PM EST


 

Airport Tracker/Info


-or-


 

Live Flight TrackerFlight Track Log ✈ N700XF ✈ 26-Apr-2013 ✈ KUNV - KAGC

Flight Track Log - Related Links

Times and Time Zones

All times are in EDT time to prevent confusion due to time zone crossing. See the N700XF flight status page for this flight to view local times or setup timezone preferences in your user account.

Time Position Orientation Groundspeed Altitude Reporting Facility
EDT Latitude Longitude Course Direction KTS MPH feet Rate Location/Type
04:05PM 40.8253 -77.9428 260° West 132 152 5,400  Level New York Center
04:05PM 40.8231 -77.9600 260° West 136 157 6,200 3,780 Climbing Cleveland Center
04:06PM 40.8083 -78.0539 258° West 194 223 10,200 3,600 Climbing Cleveland Center
04:07PM 40.7875 -78.1533 255° West 248 285 13,500 2,700 Climbing Cleveland Center
04:08PM 40.7628 -78.2667 254° West 294 338 15,700 1,200 Climbing Cleveland Center
04:09PM 40.7383 -78.3908 255° West 333 383 16,000 120 Climbing Cleveland Center
04:10PM 40.7075 -78.5261 253° West 352 405 16,000 -300 Level Cleveland Center
04:11PM 40.6803 -78.6500 254° West 352 405 15,500 -960 Descending Cleveland Center
04:12PM 40.6533 -78.7742 254° West 357 411 14,100 -1,440 Descending Cleveland Center
04:13PM 40.6258 -78.8981 254° West 362 417 12,700 -1,500 Descending Cleveland Center
04:13PM 40.6103 -78.9639 253° West 348 400 11,800 -1,440 Descending Cleveland Center
04:14PM 40.6006 -79.0189 257° West 357 411 11,300 -1,380 Descending Cleveland Center
04:14PM 40.5806 -79.0933 251° West 346 398 10,300 -1,440 Descending Cleveland Center
04:15PM 40.5708 -79.1372 254° West 357 411 9,900 -600 Descending Cleveland Center
04:16PM 40.5569 -79.2031 255° West 301 346 9,700 -600 Descending Cleveland Center
04:16PM 40.5492 -79.2386 254° West 333 383 9,300 -1,800 Descending Cleveland Center
04:17PM 40.5353 -79.3019 254° West 267 307 7,900 -1,800 Descending Cleveland Center
04:17PM 40.5294 -79.3375 258° West 292 336 7,500 -1,800 Descending Cleveland Center
04:17PM 40.5153 -79.3925 251° West 281 323 6,300 -1,800 Descending Cleveland Center
04:18PM 40.5075 -79.4333 256° West 286 329 5,700 -960 Descending Cleveland Center
04:19PM 40.4792 -79.5239 248° West 280 322 5,000 -600 Descending Cleveland Center
04:20PM 40.4486 -79.6092 245° Southwest 266 306 4,600 -1,020 Descending Cleveland Center
04:21PM 40.4139 -79.6969 243° Southwest 266 306 3,000 -900 Descending Cleveland Center
04:22PM 40.3811 -79.7764 242° Southwest 267 307 2,900 -120 Descending Cleveland Center
04:23PM 40.3608 -79.8364 246° West 227 261 2,800 -120 Descending Cleveland Center
04:25PM 40.3500 -79.9167 270° West  Level FlightAware Approximate
04:32PM 40.3544 -79.9302 270° West  Level Estimated
04:33PM 40.3544 -79.9302 270° West  Level Estimated
04:34PM 40.3544 -79.9302 270° West  Level Estimated
04:35PM 40.3544 -79.9302 270° West  Level Estimated